createdAt,value
2019-02-17T00:00:58.830Z,64.33
2019-02-17T00:03:49.866Z,57.83
2019-02-17T00:06:38.819Z,57.13
2019-02-17T00:09:31.642Z,62.23
2019-02-17T00:12:20.953Z,54.03
2019-02-17T00:15:10.446Z,40.80
2019-02-17T00:18:03.215Z,60.23
2019-02-17T00:20:53.350Z,50.87
2019-02-17T00:23:43.301Z,44.20
2019-02-17T00:26:35.662Z,41.43
2019-02-17T00:29:25.653Z,34.03
2019-02-17T00:32:14.900Z,67.43
2019-02-17T00:35:05.008Z,34.40
2019-02-17T00:37:54.463Z,23.73
2019-02-17T00:40:44.019Z,37.00
2019-02-17T00:43:33.350Z,49.43
2019-02-17T00:46:23.287Z,35.07
2019-02-17T00:49:12.303Z,27.97
2019-02-17T00:52:03.403Z,23.77
2019-02-17T00:54:52.613Z,24.30
2019-02-17T00:57:42.252Z,26.30
2019-02-17T01:00:31.000Z,32.73
2019-02-17T01:03:20.306Z,40.20
2019-02-17T01:06:09.623Z,38.17
2019-02-17T01:09:00.759Z,36.37
2019-02-17T01:11:49.995Z,42.43
2019-02-17T01:14:38.868Z,49.40
2019-02-17T01:17:28.473Z,29.93
2019-02-17T01:20:18.021Z,29.23
2019-02-17T01:23:07.425Z,28.47
2019-02-17T01:25:57.271Z,26.93
2019-02-17T01:28:46.980Z,29.73
2019-02-17T01:31:36.574Z,29.03
2019-02-17T01:34:25.868Z,30.50
2019-02-17T01:37:15.221Z,22.93
2019-02-17T01:40:04.702Z,23.67
2019-02-17T01:42:54.069Z,23.97
2019-02-17T01:45:43.511Z,29.00
2019-02-17T01:48:32.723Z,27.70
2019-02-17T01:51:22.272Z,25.37
2019-02-17T01:54:11.961Z,27.63
2019-02-17T01:57:01.462Z,26.93
2019-02-17T01:59:50.381Z,26.80
2019-02-17T02:02:39.119Z,28.83
2019-02-17T02:05:28.416Z,30.87
2019-02-17T02:08:18.260Z,35.63
2019-02-17T02:11:07.364Z,34.70
2019-02-17T02:13:56.720Z,31.87
2019-02-17T02:16:45.588Z,33.27
2019-02-17T02:19:35.083Z,30.30
2019-02-17T02:22:23.962Z,31.10
2019-02-17T02:25:13.316Z,28.70
2019-02-17T02:28:02.583Z,27.87
2019-02-17T02:30:51.830Z,28.53
2019-02-17T02:33:40.737Z,31.57
2019-02-17T02:36:30.216Z,38.07
2019-02-17T02:39:19.338Z,42.10
2019-02-17T02:42:08.848Z,38.93
2019-02-17T02:44:58.504Z,41.13
2019-02-17T02:47:47.510Z,40.37
2019-02-17T02:50:37.185Z,33.13
2019-02-17T02:53:26.646Z,20.77
2019-02-17T02:56:16.003Z,26.00
2019-02-17T02:59:05.428Z,27.67
2019-02-17T03:01:54.387Z,28.50
2019-02-17T03:04:43.100Z,25.23
2019-02-17T03:07:32.490Z,24.40
2019-02-17T03:10:22.276Z,24.10
2019-02-17T03:13:11.401Z,30.13
2019-02-17T03:16:00.639Z,30.43
2019-02-17T03:18:49.558Z,27.90
2019-02-17T03:21:38.925Z,28.93
2019-02-17T03:24:28.153Z,30.40
2019-02-17T03:27:17.825Z,40.17
2019-02-17T03:30:08.222Z,44.50
2019-02-17T03:32:57.365Z,55.10
2019-02-17T03:35:46.975Z,72.17
2019-02-17T03:38:36.294Z,69.50
2019-02-17T03:41:25.708Z,75.47
2019-02-17T03:44:14.962Z,58.17
2019-02-17T03:47:04.483Z,60.93
2019-02-17T03:49:53.748Z,45.43
2019-02-17T03:52:43.423Z,44.40
2019-02-17T03:55:32.595Z,34.60
2019-02-17T03:58:21.840Z,30.73
2019-02-17T04:01:11.141Z,38.60
2019-02-17T04:04:00.749Z,66.33
2019-02-17T04:06:49.816Z,129.47
2019-02-17T04:09:39.460Z,136.37
2019-02-17T04:12:28.158Z,118.87
2019-02-17T04:15:17.233Z,71.47
2019-02-17T04:18:06.476Z,33.50
2019-02-17T04:20:56.253Z,86.73
2019-02-17T04:23:45.572Z,65.67
2019-02-17T04:26:34.432Z,48.83
2019-02-17T04:29:23.721Z,43.07
2019-02-17T04:32:13.048Z,52.90
2019-02-17T04:35:02.297Z,43.80
2019-02-17T04:37:51.632Z,31.60
2019-02-17T04:40:41.294Z,31.20
2019-02-17T04:43:30.699Z,33.57
2019-02-17T04:46:19.658Z,34.63
2019-02-17T04:49:09.246Z,85.73
2019-02-17T04:51:58.048Z,79.83
2019-02-17T04:54:47.323Z,55.10
2019-02-17T04:57:36.991Z,57.93
2019-02-17T05:00:25.986Z,52.77
2019-02-17T05:03:15.614Z,55.63
2019-02-17T05:06:05.250Z,53.77
2019-02-17T05:08:54.515Z,49.20
2019-02-17T05:11:44.242Z,54.67
2019-02-17T05:14:33.885Z,59.43
2019-02-17T05:17:24.603Z,58.03
2019-02-17T05:20:13.869Z,83.73
2019-02-17T05:23:02.961Z,51.50
2019-02-17T05:25:52.070Z,46.87
2019-02-17T05:28:41.695Z,60.33
2019-02-17T05:31:31.125Z,59.63
2019-02-17T05:34:20.353Z,57.90
2019-02-17T05:37:09.859Z,55.70
2019-02-17T05:40:01.324Z,71.27
2019-02-17T05:42:50.921Z,53.03
2019-02-17T05:45:40.663Z,55.23
2019-02-17T05:48:30.009Z,54.57
2019-02-17T05:51:20.065Z,53.02
2019-02-17T05:54:08.847Z,75.33
2019-02-17T05:56:58.165Z,86.93
2019-02-17T05:59:47.439Z,54.40
2019-02-17T06:02:36.552Z,50.73
2019-02-17T06:05:25.877Z,39.33
2019-02-17T06:08:15.347Z,39.60
2019-02-17T06:11:04.866Z,49.80
2019-02-17T06:13:53.707Z,40.53
2019-02-17T06:16:43.120Z,49.10
2019-02-17T06:19:32.871Z,75.90
2019-02-17T06:22:22.105Z,114.63
2019-02-17T06:25:11.397Z,125.07
2019-02-17T06:28:00.307Z,95.70
2019-02-17T06:30:50.876Z,74.60
2019-02-17T06:33:39.638Z,64.20
2019-02-17T06:36:28.995Z,56.87
2019-02-17T06:39:18.511Z,96.83
2019-02-17T06:42:07.981Z,73.80
2019-02-17T06:44:58.060Z,101.63
2019-02-17T06:47:46.995Z,71.33
2019-02-17T06:50:36.363Z,71.87
2019-02-17T06:53:25.186Z,68.83
2019-02-17T06:56:21.394Z,64.17
2019-02-17T06:59:11.012Z,77.00
2019-02-17T07:02:00.601Z,72.93
2019-02-17T07:05:21.835Z,80.33
2019-02-17T07:08:15.900Z,50.63
2019-02-17T07:11:04.918Z,57.70
2019-02-17T07:13:54.188Z,54.83
2019-02-17T07:16:43.875Z,51.73
2019-02-17T07:19:33.082Z,51.13
2019-02-17T07:22:22.355Z,55.43
2019-02-17T07:25:11.568Z,79.97
2019-02-17T07:28:00.872Z,59.53
2019-02-17T07:30:50.269Z,89.67
2019-02-17T07:33:42.308Z,92.97
2019-02-17T07:36:32.957Z,101.87
2019-02-17T07:39:22.448Z,85.10
2019-02-17T07:42:11.881Z,75.00
2019-02-17T07:45:01.176Z,95.80
2019-02-17T07:47:50.491Z,71.50
2019-02-17T07:50:39.364Z,64.20
2019-02-17T07:53:28.638Z,59.63
2019-02-17T07:56:17.702Z,68.17
2019-02-17T07:59:06.930Z,69.60
2019-02-17T08:01:56.282Z,73.77
2019-02-17T08:04:50.494Z,54.50
2019-02-17T08:07:39.806Z,63.43
2019-02-17T08:10:28.822Z,67.40
2019-02-17T08:13:18.268Z,50.03
2019-02-17T08:16:07.937Z,45.63
2019-02-17T08:18:57.235Z,38.27
2019-02-17T08:21:46.129Z,33.53
2019-02-17T08:24:35.444Z,35.10
2019-02-17T08:27:28.218Z,32.23
2019-02-17T08:30:17.112Z,42.80
2019-02-17T08:33:06.657Z,27.63
2019-02-17T08:35:55.516Z,35.17
2019-02-17T08:38:44.816Z,26.97
2019-02-17T08:41:34.495Z,30.60
2019-02-17T08:44:27.219Z,28.13
2019-02-17T08:47:16.715Z,25.53
2019-02-17T08:50:08.557Z,23.73
2019-02-17T08:52:58.307Z,14.57
2019-02-17T08:55:47.338Z,18.47
2019-02-17T08:58:37.104Z,14.33
2019-02-17T09:01:26.600Z,20.73
2019-02-17T09:04:16.305Z,19.93
2019-02-17T09:07:06.460Z,18.70
2019-02-17T09:09:56.383Z,23.37
2019-02-17T09:12:51.214Z,20.93
2019-02-17T09:15:40.726Z,24.13
2019-02-17T09:18:29.902Z,24.37
2019-02-17T09:21:18.792Z,23.27
2019-02-17T09:24:08.630Z,22.07
2019-02-17T09:26:57.950Z,21.50
2019-02-17T09:29:47.224Z,30.33
2019-02-17T09:32:37.088Z,27.17
2019-02-17T09:35:26.574Z,31.53
2019-02-17T09:38:17.202Z,33.37
2019-02-17T09:41:06.249Z,29.97
2019-02-17T09:43:55.429Z,40.00
2019-02-17T09:46:44.774Z,32.37
2019-02-17T09:49:34.213Z,32.47
2019-02-17T09:52:25.567Z,32.50
2019-02-17T09:55:15.615Z,31.23
2019-02-17T10:01:13.642Z,49.20
2019-02-17T10:04:03.237Z,32.20
2019-02-17T10:06:52.887Z,37.13
2019-02-17T10:09:42.769Z,56.63
2019-02-17T10:12:32.820Z,29.17
2019-02-17T10:15:22.975Z,19.37
2019-02-17T10:18:12.784Z,26.40
2019-02-17T10:21:01.644Z,23.27
2019-02-17T10:23:50.467Z,30.83
2019-02-17T10:26:41.114Z,32.53
2019-02-17T10:29:29.951Z,32.20
2019-02-17T10:32:19.236Z,25.40
2019-02-17T10:35:09.901Z,17.50
2019-02-17T10:37:59.027Z,23.37
2019-02-17T10:40:47.939Z,27.17
2019-02-17T10:43:37.193Z,29.17
2019-02-17T10:46:27.490Z,32.93
2019-02-17T10:49:16.828Z,24.23
2019-02-17T10:52:05.907Z,24.00
2019-02-17T10:54:55.422Z,25.73
2019-02-17T10:57:44.516Z,24.30
2019-02-17T11:00:33.755Z,18.73
2019-02-17T11:03:23.084Z,15.00
2019-02-17T11:06:12.619Z,17.30
2019-02-17T11:09:01.335Z,14.27
2019-02-17T11:11:50.968Z,19.40
2019-02-17T11:14:40.577Z,16.73
2019-02-17T11:17:29.749Z,22.13
2019-02-17T11:20:19.076Z,18.00
2019-02-17T11:23:08.404Z,15.30
2019-02-17T11:25:57.641Z,15.80
2019-02-17T11:28:47.424Z,19.43
2019-02-17T11:31:36.806Z,13.30
2019-02-17T11:34:26.280Z,12.77
2019-02-17T11:37:15.456Z,15.87
2019-02-17T11:40:05.191Z,17.73
2019-02-17T11:42:54.836Z,33.00
2019-02-17T11:45:44.384Z,24.73
2019-02-17T11:48:33.986Z,14.20
2019-02-17T11:51:23.419Z,18.50
2019-02-17T11:54:12.441Z,22.27
2019-02-17T11:57:01.734Z,19.23
2019-02-17T11:59:50.648Z,15.30
2019-02-17T12:02:39.930Z,17.57
2019-02-17T12:05:29.412Z,18.50
2019-02-17T12:08:18.780Z,23.20
2019-02-17T12:11:08.303Z,91.53
2019-02-17T12:13:57.576Z,36.40
2019-02-17T12:16:46.706Z,189.87
2019-02-17T12:19:35.984Z,65.43
2019-02-17T12:22:30.436Z,17.73
2019-02-17T12:25:28.393Z,15.90
2019-02-17T12:28:25.335Z,15.23
2019-02-17T12:31:22.169Z,44.97
2019-02-17T12:34:11.881Z,30.70
2019-02-17T12:37:01.188Z,19.17
2019-02-17T12:39:50.663Z,13.67
2019-02-17T12:42:39.936Z,14.33
2019-02-17T12:45:29.393Z,11.93
2019-02-17T12:48:18.639Z,17.67
2019-02-17T12:51:07.666Z,16.07
2019-02-17T12:53:57.634Z,16.20
2019-02-17T12:56:47.115Z,15.80
2019-02-17T12:59:36.394Z,30.70
2019-02-17T13:02:25.720Z,29.93
2019-02-17T13:05:15.220Z,16.13
2019-02-17T13:08:04.217Z,18.50
2019-02-17T13:10:52.935Z,16.40
2019-02-17T13:13:42.466Z,17.80
2019-02-17T13:16:31.730Z,11.70
2019-02-17T13:19:21.092Z,12.70
2019-02-17T13:22:10.605Z,12.43
2019-02-17T13:24:59.931Z,8.07
2019-02-17T13:27:49.201Z,6.80
2019-02-17T13:30:38.615Z,13.67
2019-02-17T13:33:38.891Z,13.70
2019-02-17T13:36:24.846Z,9.10
2019-02-17T13:39:14.400Z,16.17
2019-02-17T13:42:03.915Z,19.13
2019-02-17T13:44:52.860Z,16.97
2019-02-17T13:47:44.441Z,22.07
2019-02-17T13:50:33.575Z,20.30
2019-02-17T13:53:23.185Z,21.97
2019-02-17T13:56:13.089Z,20.50
2019-02-17T13:59:02.530Z,28.67
2019-02-17T14:01:52.309Z,118.23
2019-02-17T14:04:45.021Z,33.90
2019-02-17T14:07:40.244Z,54.13
2019-02-17T14:10:30.171Z,58.00
2019-02-17T14:13:19.821Z,36.20
2019-02-17T14:16:11.713Z,19.43
2019-02-17T14:19:03.611Z,23.63
2019-02-17T14:22:00.786Z,18.13
2019-02-17T14:24:50.852Z,19.33
2019-02-17T14:27:40.863Z,15.47
2019-02-17T14:30:30.571Z,15.87
2019-02-17T14:33:19.260Z,17.77
2019-02-17T14:36:08.547Z,25.00
2019-02-17T14:38:57.905Z,37.17
2019-02-17T14:41:47.082Z,27.00
2019-02-17T14:44:36.082Z,33.57
2019-02-17T14:47:25.674Z,56.07
2019-02-17T14:50:15.148Z,53.23
2019-02-17T14:53:04.488Z,66.23
2019-02-17T14:55:53.884Z,223.80
2019-02-17T14:58:43.282Z,132.57
2019-02-17T15:01:34.767Z,66.63
2019-02-17T15:04:24.029Z,74.50
2019-02-17T15:07:13.311Z,85.20
2019-02-17T15:10:02.626Z,72.67
2019-02-17T15:12:51.669Z,64.43
2019-02-17T15:15:40.976Z,71.80
2019-02-17T15:18:30.374Z,98.10
2019-02-17T15:21:19.972Z,86.53
2019-02-17T15:24:09.358Z,94.10
2019-02-17T15:26:58.627Z,97.43
2019-02-17T15:29:47.502Z,92.83
2019-02-17T15:32:36.853Z,111.67
2019-02-17T15:35:26.276Z,117.73
2019-02-17T15:38:14.879Z,155.00
2019-02-17T15:41:04.363Z,127.53
2019-02-17T15:43:53.516Z,145.27
2019-02-17T15:46:42.796Z,133.00
2019-02-17T15:49:32.095Z,432.57
2019-02-17T15:52:21.261Z,324.30
2019-02-17T15:55:10.527Z,246.33
2019-02-17T15:58:00.760Z,211.03
2019-02-17T16:00:50.303Z,132.63
2019-02-17T16:03:40.135Z,91.90
2019-02-17T16:06:29.368Z,115.23
2019-02-17T16:09:03.135Z,60.50
2019-02-17T16:11:33.187Z,27.53
2019-02-17T16:14:04.085Z,26.27
2019-02-17T16:16:35.082Z,32.97
2019-02-17T16:19:05.990Z,51.83
2019-02-17T16:21:36.946Z,55.43
2019-02-17T16:24:08.040Z,49.97
2019-02-17T16:26:39.121Z,53.50
2019-02-17T16:29:10.015Z,120.30
2019-02-17T16:31:40.956Z,99.93
2019-02-17T16:34:11.844Z,89.17
2019-02-17T16:36:42.825Z,94.10
2019-02-17T16:39:14.074Z,101.07
2019-02-17T16:41:45.033Z,102.23
2019-02-17T16:44:16.272Z,91.77
2019-02-17T16:46:47.672Z,71.10
2019-02-17T16:49:18.598Z,121.67
2019-02-17T16:51:49.487Z,141.97
2019-02-17T16:54:20.687Z,72.93
2019-02-17T16:56:51.554Z,58.43
2019-02-17T16:59:22.534Z,84.47
2019-02-17T17:01:53.642Z,75.77
2019-02-17T17:04:24.522Z,41.63
2019-02-17T17:06:55.462Z,32.87
2019-02-17T17:09:26.592Z,51.93
2019-02-17T17:11:57.525Z,28.93
2019-02-17T17:14:28.435Z,45.93
2019-02-17T17:16:59.605Z,43.13
2019-02-17T17:19:30.518Z,54.90
2019-02-17T17:22:01.438Z,119.27
2019-02-17T17:24:32.308Z,74.17
2019-02-17T17:27:03.257Z,76.73
2019-02-17T17:29:34.286Z,58.57
2019-02-17T17:32:05.183Z,67.50
2019-02-17T17:34:36.069Z,60.73
2019-02-17T17:37:07.091Z,51.53
2019-02-17T17:39:37.964Z,80.93
2019-02-17T17:42:08.831Z,80.47
2019-02-17T17:44:39.789Z,95.47
2019-02-17T17:47:11.427Z,122.40
2019-02-17T17:49:45.133Z,121.23
2019-02-17T17:52:16.295Z,93.40
2019-02-17T17:54:47.165Z,69.83
2019-02-17T17:57:18.044Z,96.83
2019-02-17T17:59:49.028Z,71.23
2019-02-17T18:02:19.967Z,89.17
2019-02-17T18:04:50.966Z,87.57
2019-02-17T18:07:21.934Z,100.73
2019-02-17T18:09:55.102Z,151.57
2019-02-17T18:12:26.007Z,153.33
2019-02-17T18:14:57.026Z,140.37
2019-02-17T18:17:27.965Z,144.10
2019-02-17T18:19:58.860Z,119.20
2019-02-17T18:22:29.837Z,90.03
2019-02-17T18:25:00.797Z,66.77
2019-02-17T18:27:31.763Z,91.37
2019-02-17T18:30:02.857Z,77.20
2019-02-17T18:32:33.779Z,55.43
2019-02-17T18:35:04.767Z,79.57
2019-02-17T18:37:35.814Z,27.33
2019-02-17T18:40:07.363Z,30.20
2019-02-17T18:42:38.287Z,58.73
2019-02-17T18:45:10.663Z,25.77
2019-02-17T18:47:41.789Z,35.30
2019-02-17T18:50:14.458Z,82.80
2019-02-17T18:52:45.457Z,30.40
2019-02-17T18:55:16.468Z,34.97
2019-02-17T18:57:50.681Z,45.47
2019-02-17T19:00:20.099Z,115.17
2019-02-17T19:02:51.071Z,92.63
2019-02-17T19:05:31.511Z,130.00
2019-02-17T19:07:54.654Z,160.83
2019-02-17T19:10:25.569Z,155.57
2019-02-17T19:12:56.535Z,105.10
2019-02-17T19:15:27.451Z,58.13
2019-02-17T19:17:58.350Z,39.40
2019-02-17T19:20:29.749Z,41.10
2019-02-17T19:23:00.809Z,71.43
2019-02-17T19:25:31.820Z,68.93
2019-02-17T19:28:03.780Z,117.20
2019-02-17T19:30:34.837Z,41.87
2019-02-17T19:33:05.877Z,50.63
2019-02-17T19:35:41.929Z,50.80
2019-02-17T19:38:09.807Z,37.77
2019-02-17T19:40:40.686Z,46.70
2019-02-17T19:43:11.575Z,51.50
2019-02-17T19:45:42.566Z,49.70
2019-02-17T19:48:13.515Z,38.50
2019-02-17T19:50:44.422Z,77.20
2019-02-17T19:53:15.639Z,43.30
2019-02-17T19:55:46.680Z,43.80
2019-02-17T19:58:17.545Z,54.57
2019-02-17T20:00:48.594Z,55.50
2019-02-17T20:03:54.258Z,45.23
2019-02-17T20:06:26.609Z,47.27
2019-02-17T20:08:57.591Z,51.60
2019-02-17T20:11:28.732Z,66.53
2019-02-17T20:13:59.610Z,74.80
2019-02-17T20:16:30.998Z,89.37
2019-02-17T20:19:01.970Z,75.03
2019-02-17T20:21:32.926Z,60.97
2019-02-17T20:24:04.019Z,53.23
2019-02-17T20:26:34.942Z,81.90
2019-02-17T20:29:05.864Z,54.83
2019-02-17T20:31:36.918Z,66.07
2019-02-17T20:34:08.125Z,108.47
2019-02-17T20:36:39.027Z,79.40
2019-02-17T20:39:10.643Z,124.50
2019-02-17T20:41:41.634Z,63.93
2019-02-17T20:44:12.759Z,31.30
2019-02-17T20:46:43.732Z,29.63
2019-02-17T20:49:14.603Z,31.80
2019-02-17T20:51:45.488Z,37.80
2019-02-17T20:54:16.439Z,36.30
2019-02-17T20:56:47.366Z,34.77
2019-02-17T20:59:36.650Z,39.83
2019-02-17T21:02:26.371Z,41.27
2019-02-17T21:05:15.726Z,43.27
2019-02-17T21:08:05.072Z,30.00
2019-02-17T21:10:54.497Z,25.47
2019-02-17T21:13:45.604Z,26.50
2019-02-17T21:16:35.208Z,25.20
2019-02-17T21:19:30.618Z,27.50
2019-02-17T21:22:23.823Z,39.73
2019-02-17T21:25:20.731Z,39.43
2019-02-17T21:28:18.346Z,34.00
2019-02-17T21:31:11.101Z,34.33
2019-02-17T21:34:03.736Z,29.77
2019-02-17T21:36:53.347Z,32.77
2019-02-17T21:39:43.979Z,56.47
2019-02-17T21:42:33.364Z,39.87
2019-02-17T21:45:23.279Z,42.23
2019-02-17T21:48:12.667Z,37.13
2019-02-17T21:51:02.118Z,32.60
2019-02-17T21:53:51.578Z,39.20
2019-02-17T21:56:40.955Z,31.47
2019-02-17T21:59:32.195Z,28.57
2019-02-17T22:02:22.154Z,28.90
2019-02-17T22:05:11.448Z,28.13
2019-02-17T22:08:00.938Z,15.03
2019-02-17T22:10:50.188Z,10.97
2019-02-17T22:13:39.761Z,9.57
2019-02-17T22:16:29.306Z,10.27
2019-02-17T22:19:23.496Z,9.80
2019-02-17T22:22:12.941Z,14.60
2019-02-17T22:25:01.882Z,23.57
2019-02-17T22:27:51.320Z,18.37
2019-02-17T22:30:41.159Z,24.67
2019-02-17T22:33:30.401Z,29.80
2019-02-17T22:36:20.097Z,21.63
2019-02-17T22:39:09.304Z,19.57
2019-02-17T22:41:58.705Z,21.97
2019-02-17T22:44:47.973Z,26.20
2019-02-17T22:47:37.230Z,24.57
2019-02-17T22:50:26.815Z,21.63
2019-02-17T22:53:16.218Z,18.90
2019-02-17T22:56:05.777Z,19.33
2019-02-17T22:58:55.091Z,23.97
2019-02-17T23:01:44.429Z,27.50
2019-02-17T23:04:33.861Z,30.20
2019-02-17T23:07:23.476Z,22.73
2019-02-17T23:10:15.106Z,19.53
2019-02-17T23:13:06.714Z,27.53
2019-02-17T23:15:56.085Z,27.97
2019-02-17T23:18:45.326Z,28.00
2019-02-17T23:21:35.138Z,29.10
2019-02-17T23:24:24.693Z,22.70
2019-02-17T23:27:14.390Z,23.20
2019-02-17T23:30:04.224Z,30.93
2019-02-17T23:32:53.898Z,29.63
2019-02-17T23:35:43.081Z,29.10
2019-02-17T23:38:32.450Z,29.03
2019-02-17T23:41:21.671Z,39.60
2019-02-17T23:44:11.282Z,23.90
2019-02-17T23:47:00.509Z,22.70
2019-02-17T23:49:49.860Z,23.10
2019-02-17T23:52:39.671Z,25.17
2019-02-17T23:55:29.487Z,26.83
2019-02-17T23:58:18.522Z,29.00
